San Simon, Arizona
Current Conditions -  °F | °C
As of 4:55 AM on Saturday 01 Nov 2014 (Local Time) from KLSB Reporting Station
Clear Clear  
Wind Chill: 59°   Ceiling: Unl
Heat Index: 59°   Visibility: 10mi
Dew Point: 41°   Wind: 14mph
Humidity: 51%   Direction: 130°SE
Pressure: 30.07"   Gusts: NA
Location:  32.27°N, 109.23°W
Report Text: KLSB 011155Z AUTO 13012KT 10SM CLR 15/05 A3007 RMK AO2
Loading
Personal Weather Stations






























Interactive Weather Map
Tropical Storm Tracking
New forecast layout! Learn more

10-Day Weather Forecast

Advertisements
Track Severe Weather on mobile